AQQ10 IFIS: Internet Flight Information System
logo dgac
Lunes 27 de Septiembre del 2021
Buscar por aerodromo o helipuerto
Ingrese nombre de aeródromo, localidad o designador OACI:
METAR del 27-09-2021 a las 01:00 UTC
Para mayor información visite www.meteochile.cl
METAR SCRD 270100Z NIL
METAR del 27-09-2021 a las 01:00 UTC
Para mayor información visite www.meteochile.cl
METAR SCRD 270100Z NIL
METAR del 27-09-2021 a las 00:00 UTC
Para mayor información visite www.meteochile.cl
METAR SCRD 270000Z NIL
METAR del 26-09-2021 a las 23:00 UTC
Para mayor información visite www.meteochile.cl
METAR SCRD 262300Z NIL
METAR del 26-09-2021 a las 22:00 UTC
Para mayor información visite www.meteochile.cl
METAR SCRD 262200Z 16015KT CAVOK 15/09 Q1017
Viento: dirección 160 grados, velocidad 15 nudos
Visibilidad: 10 km o más,
    sin nubes bajo los 5.000 pies o bajo del MSA (Mínimo de Seguridad del Aeródromo),
    sin cumulonimbus, y sin fenómenos de tiempo significativo en el aeródromo o alrededores
Temperatura: 15 °C
Rocío: 9 °C
Humedad_relativa: 67%
Presión: 1017 hPa
METAR del 26-09-2021 a las 21:00 UTC
Para mayor información visite www.meteochile.cl
METAR SCRD 262100Z 18014KT CAVOK 16/09 Q1016
Viento: dirección 180 grados, velocidad 14 nudos
Visibilidad: 10 km o más,
    sin nubes bajo los 5.000 pies o bajo del MSA (Mínimo de Seguridad del Aeródromo),
    sin cumulonimbus, y sin fenómenos de tiempo significativo en el aeródromo o alrededores
Temperatura: 16 °C
Rocío: 9 °C
Humedad_relativa: 63%
Presión: 1016 hPa
METAR del 26-09-2021 a las 20:00 UTC
Para mayor información visite www.meteochile.cl
METAR SCRD 262000Z 21012KT CAVOK 19/09 Q1016
Viento: dirección 210 grados, velocidad 12 nudos
Visibilidad: 10 km o más,
    sin nubes bajo los 5.000 pies o bajo del MSA (Mínimo de Seguridad del Aeródromo),
    sin cumulonimbus, y sin fenómenos de tiempo significativo en el aeródromo o alrededores
Temperatura: 19 °C
Rocío: 9 °C
Humedad_relativa: 52%
Presión: 1016 hPa
METAR del 26-09-2021 a las 19:00 UTC
Para mayor información visite www.meteochile.cl
METAR SCRD 261900Z 16012KT CAVOK 20/09 Q1016
Viento: dirección 160 grados, velocidad 12 nudos
Visibilidad: 10 km o más,
    sin nubes bajo los 5.000 pies o bajo del MSA (Mínimo de Seguridad del Aeródromo),
    sin cumulonimbus, y sin fenómenos de tiempo significativo en el aeródromo o alrededores
Temperatura: 20 °C
Rocío: 9 °C
Humedad_relativa: 49%
Presión: 1016 hPa
METAR del 26-09-2021 a las 18:00 UTC
Para mayor información visite www.meteochile.cl
METAR SCRD 261800Z 18014KT CAVOK 20/09 Q1016
Viento: dirección 180 grados, velocidad 14 nudos
Visibilidad: 10 km o más,
    sin nubes bajo los 5.000 pies o bajo del MSA (Mínimo de Seguridad del Aeródromo),
    sin cumulonimbus, y sin fenómenos de tiempo significativo en el aeródromo o alrededores
Temperatura: 20 °C
Rocío: 9 °C
Humedad_relativa: 49%
Presión: 1016 hPa
METAR del 26-09-2021 a las 17:00 UTC
Para mayor información visite www.meteochile.cl
METAR SCRD 261700Z 21012KT CAVOK 20/07 Q1016
Viento: dirección 210 grados, velocidad 12 nudos
Visibilidad: 10 km o más,
    sin nubes bajo los 5.000 pies o bajo del MSA (Mínimo de Seguridad del Aeródromo),
    sin cumulonimbus, y sin fenómenos de tiempo significativo en el aeródromo o alrededores
Temperatura: 20 °C
Rocío: 7 °C
Humedad_relativa: 43%
Presión: 1016 hPa